Time;durP1;ratioP1;P1;durP2;ratioP2;P2;SDS_P1;SDS_P2;PMS_P1;PMS_P2;Temp;Humidity;BMP_temperature;BMP_pressure;BME280_temperature;BME280_humidity;BME280_pressure;Samples;Min_cycle;Max_cycle;Signal;HPM_P1;HPM_P2
2022/09/08 00:00:49;;;;;;;;;;;17.70;74.10;;;16.96;68.28;96515.53;4209444;33;20250;-83
2022/09/08 00:03:22;;;;;;;;;;;17.70;74.20;;;16.95;68.41;96508.34;4209857;33;20243;-83
2022/09/08 00:05:55;;;;;;;;;;;17.70;74.30;;;16.94;68.23;96509.44;4209813;33;20210;-82
2022/09/08 00:08:24;;;;;;;;;;;17.70;74.20;;;16.95;68.26;96513.88;4234347;33;20325;-82
2022/09/08 00:10:53;;;;;;;;;;;17.70;74.20;;;16.94;68.24;96517.75;4209542;33;20084;-83
2022/09/08 00:13:22;;;;;;;;;;;17.70;74.20;;;16.94;68.42;96515.81;4209779;33;20035;-83
2022/09/08 00:15:51;;;;;;;;;;;17.70;74.30;;;16.95;68.26;96516.66;4233407;33;20452;-83
2022/09/08 00:18:21;;;;;;;;;;;17.70;74.20;;;16.94;68.08;96514.97;4234280;33;20109;-83
2022/09/08 00:20:50;;;;;;;;;;;17.70;74.10;;;16.93;68.17;96507.81;4232551;33;20214;-83
2022/09/08 00:23:18;;;;;;;;;;;17.70;74.10;;;16.93;68.39;96510.56;4233128;33;20023;-82
2022/09/08 00:25:47;;;;;;;;;;;17.70;74.20;;;16.93;68.22;96507.81;4233023;33;19903;-83
2022/09/08 00:28:15;;;;;;;;;;;17.70;74.30;;;16.92;68.48;96503.41;4234290;33;19902;-82
2022/09/08 00:30:44;;;;;;;;;;;17.70;74.40;;;16.92;68.14;96503.41;4233784;33;20089;-83
2022/09/08 00:33:12;;;;;;;;;;;17.60;74.00;;;16.91;68.37;96504.53;4234140;33;20021;-83
2022/09/08 00:35:44;;;;;;;;;;;17.60;74.20;;;16.91;68.42;96510.06;4233034;33;19941;-82
2022/09/08 00:38:13;;;;;;;;;;;17.70;74.30;;;16.92;68.40;96517.22;4234148;33;20147;-82
2022/09/08 00:40:45;;;;;;;;;;;17.70;74.30;;;16.91;68.37;96516.38;4232492;33;20222;-83
2022/09/08 00:43:31;;;;;;;;;;;17.70;74.30;;;16.91;68.62;96516.38;4233040;33;20105;-82
2022/09/08 00:46:00;;;;;;;;;;;17.70;74.30;;;16.90;68.32;96512.00;4234032;33;20213;-83
2022/09/08 00:48:29;;;;;;;;;;;17.70;74.20;;;16.88;68.19;96506.78;4234060;33;19910;-83
2022/09/08 00:50:59;;;;;;;;;;;17.60;74.20;;;16.90;68.16;96512.00;4232490;33;19902;-83
2022/09/08 00:53:28;;;;;;;;;;;17.60;74.10;;;16.89;68.28;96507.59;4209167;33;20322;-83
2022/09/08 00:55:56;;;;;;;;;;;17.70;74.30;;;16.90;68.36;96511.19;4233117;33;20072;-83
2022/09/08 00:58:26;;;;;;;;;;;17.60;74.20;;;16.88;68.23;96506.78;4233811;33;20133;-82
2022/09/08 01:00:54;;;;;;;;;;;17.60;74.20;;;16.88;68.14;96509.53;4232626;33;19909;-83
2022/09/08 01:03:23;;;;;;;;;;;17.60;74.10;;;16.87;68.42;96505.13;4232767;33;20662;-83
2022/09/08 01:05:55;;;;;;;;;;;17.60;74.30;;;16.87;68.45;96504.31;4210020;33;20065;-83
2022/09/08 01:14:12;;;;;;;;;;;17.60;74.20;;;16.85;68.22;96501.84;4235413;33;20069;-82
2022/09/08 01:16:43;;;;;;;;;;;17.60;74.20;;;16.86;67.89;96500.72;4236406;33;20030;-83
2022/09/08 01:19:16;;;;;;;;;;;17.60;74.00;;;16.85;68.35;96504.59;4236166;33;20114;-82
2022/09/08 01:21:55;;;;;;;;;;;17.60;74.10;;;16.85;68.34;96512.91;4234865;33;20023;-82
2022/09/08 01:24:36;;;;;;;;;;;17.60;74.10;;;16.85;68.34;96504.59;4235322;33;20440;-82
2022/09/08 01:27:21;;;;;;;;;;;17.60;74.10;;;16.84;67.91;96500.22;4235413;33;19902;-83
2022/09/08 01:29:50;;;;;;;;;;;17.60;74.20;;;16.83;67.97;96498.59;4211158;33;20340;-82
2022/09/08 01:32:19;;;;;;;;;;;17.60;73.90;;;16.84;68.23;96497.47;4211803;33;20217;-83
2022/09/08 01:34:48;;;;;;;;;;;17.60;74.10;;;16.84;68.31;96493.84;4235181;33;19902;-83
2022/09/08 01:37:16;;;;;;;;;;;17.60;74.20;;;16.84;68.29;96493.84;4235352;33;19902;-83
2022/09/08 01:39:45;;;;;;;;;;;17.60;74.20;;;16.83;68.35;96498.59;4258461;33;19909;-82
2022/09/08 01:42:15;;;;;;;;;;;17.60;74.40;;;16.83;68.29;96493.06;4235048;33;19917;-83
2022/09/08 01:44:44;;;;;;;;;;;17.60;74.20;;;16.82;68.35;96499.69;4234927;33;20127;-82
2022/09/08 01:47:12;;;;;;;;;;;17.60;74.40;;;16.82;68.36;96501.63;4211549;33;19912;-83
2022/09/08 01:49:41;;;;;;;;;;;17.60;74.40;;;16.81;68.45;96503.59;4210699;33;20158;-83
2022/09/08 01:52:09;;;;;;;;;;;17.50;74.40;;;16.82;68.11;96502.47;4235350;33;20152;-83
2022/09/08 01:54:38;;;;;;;;;;;17.50;74.10;;;16.81;68.12;96495.28;4211264;33;19955;-82
2022/09/08 01:57:06;;;;;;;;;;;17.50;74.20;;;16.80;68.25;96507.47;4236075;33;19902;-83
2022/09/08 01:59:36;;;;;;;;;;;17.50;74.20;;;16.80;68.38;96504.72;4210675;33;20072;-83
2022/09/08 02:02:05;;;;;;;;;;;17.50;74.40;;;16.80;68.58;96501.94;4235100;33;19993;-83
2022/09/08 02:04:34;;;;;;;;;;;17.50;74.40;;;16.81;68.33;96505.53;4234731;33;19914;-83
2022/09/08 02:07:02;;;;;;;;;;;17.50;74.40;;;16.80;68.41;96496.41;4235953;33;19903;-83
2022/09/08 02:09:31;;;;;;;;;;;17.50;74.40;;;16.79;68.44;96492.00;4234435;33;20164;-82
2022/09/08 02:11:59;;;;;;;;;;;17.50;74.40;;;16.80;68.55;96495.56;4210277;33;19942;-82
2022/09/08 02:14:28;;;;;;;;;;;17.50;74.50;;;16.79;68.30;96491.16;4234737;33;20069;-83
2022/09/08 02:16:58;;;;;;;;;;;17.50;74.30;;;16.79;68.39;96486.47;4234611;33;20349;-83
2022/09/08 02:19:26;;;;;;;;;;;17.50;74.40;;;16.79;68.35;96486.47;4234346;33;19909;-83
2022/09/08 02:21:55;;;;;;;;;;;17.50;74.40;;;16.77;68.31;96472.13;4234439;33;20311;-83
2022/09/08 02:24:23;;;;;;;;;;;17.50;74.30;;;16.78;68.28;96473.78;4210958;33;20168;-83
2022/09/08 02:26:52;;;;;;;;;;;17.50;74.40;;;16.77;68.28;96472.13;4234779;33;20249;-82
2022/09/08 02:29:20;;;;;;;;;;;17.50;74.20;;;16.77;68.44;96466.59;4210872;33;20017;-83
2022/09/08 02:31:49;;;;;;;;;;;17.50;74.30;;;16.77;68.20;96468.56;4234283;33;19909;-83
2022/09/08 02:34:19;;;;;;;;;;;17.50;74.30;;;16.76;68.47;96466.91;4234623;33;19906;-83
2022/09/08 02:36:48;;;;;;;;;;;17.50;74.20;;;16.77;68.35;96461.06;4234629;33;19995;-83
2022/09/08 02:39:16;;;;;;;;;;;17.50;74.40;;;16.75;68.16;96463.31;4210995;33;19902;-83
2022/09/08 02:41:45;;;;;;;;;;;17.50;74.40;;;16.75;68.55;96460.56;4210207;33;19906;-83
2022/09/08 02:44:14;;;;;;;;;;;17.50;74.50;;;16.76;68.34;96464.16;4234392;33;19909;-83
2022/09/08 02:46:42;;;;;;;;;;;17.50;74.50;;;16.74;68.58;96464.44;4210908;33;19902;-83
2022/09/08 02:49:11;;;;;;;;;;;17.50;74.40;;;16.75;68.27;96459.75;4234315;33;19910;-83
2022/09/08 02:51:41;;;;;;;;;;;17.50;75.10;;;16.74;68.28;96464.44;4234056;33;20382;-82
2022/09/08 02:54:10;;;;;;;;;;;17.50;74.40;;;16.74;68.47;96467.19;4234387;33;19973;-82
2022/09/08 02:56:38;;;;;;;;;;;17.50;74.40;;;16.73;68.44;96465.56;4235183;33;20129;-82
2022/09/08 02:59:07;;;;;;;;;;;17.50;74.40;;;16.72;68.48;96463.91;4210712;33;19902;-83
2022/09/08 03:01:35;;;;;;;;;;;17.50;74.40;;;16.73;68.31;96454.50;4210117;33;20159;-82
2022/09/08 03:04:05;;;;;;;;;;;17.50;74.40;;;16.72;68.49;96461.16;4234325;33;20154;-83
2022/09/08 03:06:34;;;;;;;;;;;17.50;74.40;;;16.72;68.63;96462.00;4233966;33;20001;-83
2022/09/08 03:09:04;;;;;;;;;;;17.50;74.50;;;16.72;68.17;96463.91;4235060;33;19902;-83
2022/09/08 03:11:32;;;;;;;;;;;17.50;74.50;;;16.71;68.51;96457.59;4257523;33;19909;-83
2022/09/08 03:14:01;;;;;;;;;;;17.50;74.50;;;16.71;68.39;96457.59;4210641;33;20218;-83
2022/09/08 03:16:30;;;;;;;;;;;17.50;74.40;;;16.71;68.21;96452.06;4257683;33;20129;-83
2022/09/08 03:18:58;;;;;;;;;;;17.50;74.20;;;16.71;68.32;96454.00;4234037;33;20451;-83
2022/09/08 03:21:27;;;;;;;;;;;17.50;74.40;;;16.70;68.45;96455.13;4233422;33;19910;-82
2022/09/08 03:23:55;;;;;;;;;;;17.50;75.20;;;16.70;68.40;96449.59;4210616;33;19902;-83
2022/09/08 03:26:25;;;;;;;;;;;17.50;74.40;;;16.69;68.42;96454.31;4234814;33;19925;-83
2022/09/08 03:28:54;;;;;;;;;;;17.50;75.20;;;16.69;68.49;96467.31;4234302;33;19910;-83
2022/09/08 03:31:22;;;;;;;;;;;17.40;74.30;;;16.70;68.64;96457.91;4209588;33;19902;-83
2022/09/08 03:33:51;;;;;;;;;;;17.40;74.40;;;16.68;68.32;96458.19;4210374;33;19986;-82
2022/09/08 03:36:20;;;;;;;;;;;17.50;74.30;;;16.69;68.33;96453.50;4210083;33;20114;-83
2022/09/08 03:38:48;;;;;;;;;;;17.40;74.10;;;16.68;68.37;96455.41;4210118;33;20312;-83
2022/09/08 03:41:17;;;;;;;;;;;17.40;74.40;;;16.69;68.42;96461.78;4233174;33;19957;-83
2022/09/08 03:43:49;;;;;;;;;;;17.40;74.20;;;16.67;68.43;96467.59;4233727;33;20110;-83
2022/09/08 03:46:18;;;;;;;;;;;17.40;74.30;;;16.68;68.38;96468.44;4233399;33;20082;-83
2022/09/08 03:48:46;;;;;;;;;;;17.40;74.30;;;16.67;68.03;96467.59;4210159;33;19902;-82
2022/09/08 03:51:16;;;;;;;;;;;17.40;74.20;;;16.67;68.22;96466.78;4233105;33;20047;-83
2022/09/08 03:53:45;;;;;;;;;;;17.40;74.30;;;16.67;68.53;96466.78;4233636;33;19990;-82
2022/09/08 03:56:14;;;;;;;;;;;17.40;74.40;;;16.65;68.36;96469.84;4209919;33;20480;-83
2022/09/08 03:58:42;;;;;;;;;;;17.40;74.40;;;16.66;68.49;96459.63;4233709;33;20093;-83
2022/09/08 04:01:13;;;;;;;;;;;17.40;74.30;;;16.65;68.63;96457.97;4234129;33;20142;-82
2022/09/08 04:03:42;;;;;;;;;;;17.40;74.10;;;16.66;68.40;96459.63;4209926;33;20118;-83
2022/09/08 04:06:10;;;;;;;;;;;17.40;74.40;;;16.65;68.30;96464.31;4233418;33;19903;-83
2022/09/08 04:08:39;;;;;;;;;;;17.40;74.30;;;16.65;68.49;96464.31;4233494;33;19903;-83
2022/09/08 04:11:07;;;;;;;;;;;17.40;74.30;;;16.64;68.42;96456.34;4233810;33;20106;-83
2022/09/08 04:13:36;;;;;;;;;;;17.40;74.30;;;16.65;68.13;96463.50;4209790;33;19903;-83
2022/09/08 04:16:05;;;;;;;;;;;17.40;74.20;;;16.64;68.19;96465.47;4234167;33;19989;-83
2022/09/08 04:18:35;;;;;;;;;;;17.40;75.00;;;16.65;68.29;96469.03;4210133;33;20170;-83
2022/09/08 04:21:05;;;;;;;;;;;17.40;74.20;;;16.66;68.16;96465.16;4232624;33;20264;-83
2022/09/08 04:23:33;;;;;;;;;;;17.40;74.00;;;16.66;68.31;96465.16;4209930;33;20231;-83
2022/09/08 04:26:04;;;;;;;;;;;17.40;74.10;;;16.66;68.40;96459.63;4234269;33;19910;-83
2022/09/08 04:28:33;;;;;;;;;;;17.40;74.10;;;16.66;68.20;96454.91;4233380;33;20096;-83
2022/09/08 04:31:04;;;;;;;;;;;17.40;74.10;;;16.66;68.12;96459.63;4232554;33;20122;-83
2022/09/08 04:33:35;;;;;;;;;;;17.40;73.90;;;16.66;68.33;96465.97;4233210;33;19909;-83
2022/09/08 04:36:08;;;;;;;;;;;17.40;74.10;;;16.67;68.19;96466.78;4234164;33;19973;-83
2022/09/08 04:38:37;;;;;;;;;;;17.40;74.00;;;16.67;68.10;96466.78;4209869;33;20166;-83
2022/09/08 04:41:06;;;;;;;;;;;17.40;74.00;;;16.67;68.31;96472.31;4233263;33;19909;-82
2022/09/08 04:43:34;;;;;;;;;;;17.40;74.10;;;16.69;67.97;96481.13;4209703;33;20482;-83
2022/09/08 04:46:03;;;;;;;;;;;17.50;74.10;;;16.69;68.25;96481.13;4234205;33;20070;-82
2022/09/08 04:48:32;;;;;;;;;;;17.40;74.10;;;16.70;68.07;96477.25;4233185;33;19909;-83
2022/09/08 04:51:02;;;;;;;;;;;17.40;73.90;;;16.70;68.33;96482.78;4233196;33;19909;-83
2022/09/08 04:53:32;;;;;;;;;;;17.40;73.80;;;16.70;67.85;96478.06;4233015;33;19902;-83
2022/09/08 04:56:01;;;;;;;;;;;17.50;73.90;;;16.71;67.78;96482.47;4209239;33;19903;-83
2022/09/08 04:58:30;;;;;;;;;;;17.50;73.70;;;16.71;67.84;96485.22;4232972;33;19902;-83
2022/09/08 05:01:04;;;;;;;;;;;17.50;73.80;;;16.72;67.85;96483.28;4232428;33;19980;-83
2022/09/08 05:03:35;;;;;;;;;;;17.50;73.80;;;16.71;67.80;96485.22;4233601;33;23150;-83
2022/09/08 05:06:06;;;;;;;;;;;17.50;73.70;;;16.71;67.70;96490.75;4209553;33;20318;-82
2022/09/08 05:08:34;;;;;;;;;;;17.50;73.70;;;16.72;67.99;96497.09;4233891;33;20050;-82
2022/09/08 05:11:04;;;;;;;;;;;17.50;73.70;;;16.72;67.86;96497.09;4232319;33;20345;-82
2022/09/08 05:13:33;;;;;;;;;;;17.50;73.70;;;16.74;67.87;96489.31;4232824;33;20159;-82
2022/09/08 05:16:03;;;;;;;;;;;17.50;73.80;;;16.77;67.43;96488.72;4256427;33;20088;-82
2022/09/08 05:18:32;;;;;;;;;;;17.50;73.40;;;16.81;67.47;96492.53;4208662;33;19902;-82
2022/09/08 05:21:00;;;;;;;;;;;17.50;73.10;;;16.82;67.45;96491.41;4255965;33;20385;-82
2022/09/08 05:23:30;;;;;;;;;;;17.60;73.10;;;16.81;67.05;96498.06;4232819;33;19971;-82
2022/09/08 05:26:01;;;;;;;;;;;17.60;73.00;;;16.81;67.13;96495.28;4208985;33;19909;-82
2022/09/08 05:28:31;;;;;;;;;;;17.60;72.90;;;16.82;67.35;96485.88;4209269;33;20129;-82
2022/09/08 05:31:00;;;;;;;;;;;17.60;73.00;;;16.81;67.35;96488.94;4232163;33;20461;-82
2022/09/08 05:33:29;;;;;;;;;;;17.60;73.10;;;16.81;67.47;96481.47;4233819;33;19903;-82
2022/09/08 05:35:57;;;;;;;;;;;17.60;73.10;;;16.81;67.33;96484.22;4232276;33;20158;-82
2022/09/08 05:38:26;;;;;;;;;;;17.60;73.00;;;16.80;67.08;96488.13;4232638;33;20052;-82
2022/09/08 05:40:56;;;;;;;;;;;17.60;72.90;;;16.80;67.23;96485.34;4208668;33;20465;-82
2022/09/08 05:43:24;;;;;;;;;;;17.60;72.90;;;16.81;67.34;96488.94;4208837;33;19953;-82
2022/09/08 05:45:53;;;;;;;;;;;17.60;73.10;;;16.81;67.46;96488.94;4209060;33;19902;-82
2022/09/08 05:48:21;;;;;;;;;;;17.60;73.10;;;16.81;67.11;96483.41;4232555;33;19903;-82
2022/09/08 05:50:50;;;;;;;;;;;17.60;72.90;;;16.84;67.10;96489.16;4232395;33;20093;-81
2022/09/08 05:53:18;;;;;;;;;;;17.60;72.90;;;16.87;67.25;96488.53;4233658;33;20232;-81
2022/09/08 05:55:58;;;;;;;;;;;17.60;72.90;;;16.97;66.97;96481.22;4211662;33;19951;-81
2022/09/08 05:58:26;;;;;;;;;;;17.70;72.90;;;17.18;66.53;96479.69;4206788;33;19902;-81
2022/09/08 06:00:59;;;;;;;;;;;17.90;72.60;;;17.34;65.95;96487.69;4206324;33;19903;-81
2022/09/08 06:03:28;;;;;;;;;;;18.00;71.90;;;17.45;65.41;96474.47;4234682;33;20034;-81
2022/09/08 06:05:56;;;;;;;;;;;18.10;71.40;;;17.56;65.12;96464.00;4211247;33;20125;-81
2022/09/08 06:08:25;;;;;;;;;;;18.20;71.00;;;17.66;65.20;96471.28;4234479;33;19902;-81
2022/09/08 06:10:53;;;;;;;;;;;18.30;71.00;;;17.68;65.06;96464.28;4234364;33;19902;-81
2022/09/08 06:13:23;;;;;;;;;;;18.40;70.70;;;17.68;65.04;96471.78;4210919;33;20021;-81
2022/09/08 06:15:52;;;;;;;;;;;18.40;70.50;;;17.61;65.08;96467.47;4211255;33;19962;-81
2022/09/08 06:18:20;;;;;;;;;;;18.40;70.50;;;17.56;65.36;96464.81;4235797;33;20065;-81
2022/09/08 06:20:49;;;;;;;;;;;18.40;70.70;;;17.53;65.64;96459.06;4210818;33;20241;-81
2022/09/08 06:23:17;;;;;;;;;;;18.30;70.90;;;17.49;65.74;96459.69;4211037;33;20037;-82
2022/09/08 06:25:47;;;;;;;;;;;18.30;71.10;;;17.48;65.66;96463.63;4211213;33;19902;-81
2022/09/08 07:03:49;;;;;;;;;;;18.50;71.30;;;18.07;65.75;96490.59;4303222;32;20363;-80
2022/09/08 07:06:18;;;;;;;;;;;18.70;71.80;;;18.11;65.52;96473.34;4273468;33;19908;-81
2022/09/08 07:09:10;;;;;;;;;;;18.70;71.70;;;18.14;65.39;96487.38;4261340;27;19902;-82
2022/09/08 07:11:49;;;;;;;;;;;18.70;71.70;;;18.18;65.33;96484.81;4188404;34;20216;-83
2022/09/08 07:14:38;;;;;;;;;;;18.80;71.60;;;18.19;65.42;96492.00;4187999;34;20066;-83
2022/09/08 07:17:09;;;;;;;;;;;18.80;71.40;;;18.21;65.11;96489.72;4165348;34;20142;-83
2022/09/08 07:19:48;;;;;;;;;;;18.80;71.30;;;18.23;65.16;96487.47;4188383;34;20136;-83
2022/09/08 07:22:24;;;;;;;;;;;18.90;71.30;;;18.25;64.96;96486.00;4165038;34;19908;-84
2022/09/08 07:24:54;;;;;;;;;;;18.90;71.20;;;18.28;64.99;96489.28;4188446;34;19910;-85
2022/09/08 07:27:23;;;;;;;;;;;18.90;71.10;;;18.31;64.85;96491.44;4189226;33;20229;-84
2022/09/08 07:29:53;;;;;;;;;;;18.90;71.10;;;18.32;64.78;96482.81;4188497;34;19903;-84
2022/09/08 07:32:24;;;;;;;;;;;18.90;71.10;;;18.35;64.56;96478.59;4165278;34;19910;-85
2022/09/08 07:34:58;;;;;;;;;;;18.90;71.00;;;18.37;64.55;96485.47;4173624;34;19903;-84
2022/09/08 07:37:29;;;;;;;;;;;19.00;70.90;;;18.39;64.70;96485.97;4174705;34;20045;-83
2022/09/08 07:40:02;;;;;;;;;;;19.00;70.90;;;18.41;64.54;96485.66;4193728;34;19963;-84
2022/09/08 07:42:33;;;;;;;;;;;19.00;70.70;;;18.46;64.50;96490.25;4195275;34;19903;-83
2022/09/08 07:45:02;;;;;;;;;;;19.00;70.60;;;18.47;64.50;96489.91;4205160;33;19903;-84
2022/09/08 07:47:43;;;;;;;;;;;19.00;70.60;;;18.48;64.46;96490.75;4244378;33;19911;-84
2022/09/08 07:50:20;;;;;;;;;;;19.00;70.50;;;18.50;64.26;96485.72;4245627;33;19909;-84
2022/09/08 07:52:53;;;;;;;;;;;19.00;70.60;;;18.51;64.49;96487.38;4228065;33;19902;-84
2022/09/08 07:55:27;;;;;;;;;;;19.10;70.60;;;18.51;64.06;96484.59;4246335;33;19904;-84
2022/09/08 07:58:01;;;;;;;;;;;19.10;70.40;;;18.52;64.50;96480.69;4220678;33;19914;-84
2022/09/08 08:00:37;;;;;;;;;;;19.10;70.50;;;18.52;64.47;96484.25;4220915;33;19902;-84
2022/09/08 08:03:16;;;;;;;;;;;19.10;70.50;;;18.52;64.25;96480.69;4216603;33;20030;-84
2022/09/08 08:05:48;;;;;;;;;;;19.10;70.50;;;18.52;64.30;96483.47;4212594;33;20230;-85
2022/09/08 08:08:26;;;;;;;;;;;19.10;70.60;;;18.52;64.31;96484.25;4235451;33;20054;-84
2022/09/08 08:11:00;;;;;;;;;;;19.10;70.60;;;18.52;64.34;96477.91;4235458;33;19909;-84
2022/09/08 08:13:43;;;;;;;;;;;19.10;70.50;;;18.51;64.51;96479.84;4235194;33;20164;-84
2022/09/08 08:16:14;;;;;;;;;;;19.10;70.80;;;18.50;64.05;96474.63;4234720;33;19909;-84
2022/09/08 08:18:50;;;;;;;;;;;19.10;70.60;;;18.48;64.54;96471.34;4234547;33;20040;-84
2022/09/08 08:21:23;;;;;;;;;;;19.10;70.60;;;18.48;64.37;96471.34;4234674;33;20141;-84
2022/09/08 08:24:08;;;;;;;;;;;19.10;70.60;;;18.47;64.62;96464.16;4234936;33;19909;-84
2022/09/08 08:26:39;;;;;;;;;;;19.10;70.60;;;18.46;64.60;96468.06;4235553;33;19902;-84
2022/09/08 08:29:24;;;;;;;;;;;19.10;70.60;;;18.44;64.97;96460.09;4234362;33;19907;-84
2022/09/08 08:31:55;;;;;;;;;;;19.10;70.60;;;18.43;64.68;96452.06;4234563;33;19902;-84
2022/09/08 08:34:26;;;;;;;;;;;19.10;70.60;;;18.39;64.94;96444.41;4210494;33;19902;-84
2022/09/08 08:36:58;;;;;;;;;;;19.10;70.70;;;18.39;64.83;96449.09;4214482;33;20074;-82
2022/09/08 08:39:27;;;;;;;;;;;19.10;70.70;;;18.38;64.96;96447.47;4207122;33;19910;-82
2022/09/08 08:42:07;;;;;;;;;;;19.00;70.60;;;18.35;65.03;96450.88;4206308;33;19989;-82
2022/09/08 08:45:01;;;;;;;;;;;19.00;70.60;;;18.34;64.85;96450.06;4182949;33;20224;-83
2022/09/08 08:47:51;;;;;;;;;;;19.00;70.60;;;18.32;65.01;96455.09;4206107;33;20415;-83
2022/09/08 08:50:57;;;;;;;;;;;19.10;70.90;;;18.31;65.48;96452.66;4182735;33;20133;-86
2022/09/08 08:53:47;;;;;;;;;;;19.00;70.80;;;18.29;65.00;96452.94;4161580;34;20448;-83
2022/09/08 08:56:20;;;;;;;;;;;19.00;70.90;;;18.28;65.03;96450.50;4155432;34;19910;-82
2022/09/08 08:59:42;;;;;;;;;;;19.00;71.00;;;18.25;65.18;96444.44;4178088;34;20333;-83
2022/09/08 09:02:18;;;;;;;;;;;19.00;71.10;;;18.23;65.42;96448.69;4178617;34;19903;-82
2022/09/08 09:05:21;;;;;;;;;;;18.90;71.10;;;18.22;65.48;96441.50;4155331;34;19903;-82
2022/09/08 09:17:13;;;;;;;;;;;18.90;71.40;;;18.16;65.58;96421.41;4220814;33;19906;-84
2022/09/08 09:20:11;;;;;;;;;;;18.90;71.40;;;18.15;65.61;96427.25;4233888;33;19903;-83
2022/09/08 09:22:44;;;;;;;;;;;18.90;71.40;;;18.14;65.69;96420.91;4209992;33;19903;-83
2022/09/08 09:25:19;;;;;;;;;;;18.90;71.40;;;18.13;65.76;96407.38;4234686;33;19903;-83
2022/09/08 09:27:50;;;;;;;;;;;18.90;71.50;;;18.12;65.91;96403.75;4233734;33;19910;-83
2022/09/08 09:30:22;;;;;;;;;;;18.90;71.60;;;18.09;65.86;96410.75;4210305;33;20221;-83
2022/09/08 09:33:23;;;;;;;;;;;18.90;71.60;;;18.08;65.84;96403.59;4233371;33;20209;-83
2022/09/08 09:36:14;;;;;;;;;;;18.90;71.60;;;18.07;65.97;96401.94;4210181;33;19903;-83
2022/09/08 09:39:16;;;;;;;;;;;18.90;71.60;;;18.06;66.00;96400.31;4205498;33;19903;-83
2022/09/08 09:42:23;;;;;;;;;;;18.80;71.60;;;18.06;66.10;96393.97;4211639;33;19909;-83
2022/09/08 09:45:17;;;;;;;;;;;18.80;71.70;;;18.04;66.01;96399.78;4233642;33;19913;-83
2022/09/08 09:48:42;;;;;;;;;;;18.80;71.70;;;18.04;66.21;96397.03;4210181;33;20117;-83
2022/09/08 09:51:34;;;;;;;;;;;18.80;71.70;;;18.03;66.16;96389.03;4136467;33;20078;-83
2022/09/08 09:54:17;;;;;;;;;;;18.80;71.70;;;18.02;66.03;96382.66;4194444;33;19904;-83
2022/09/08 09:57:42;;;;;;;;;;;18.80;71.80;;;18.01;66.08;96389.34;4233496;33;20104;-83
2022/09/08 10:00:21;;;;;;;;;;;18.80;71.80;;;18.00;66.19;96384.94;4234197;33;20297;-84
2022/09/08 10:03:42;;;;;;;;;;;18.80;71.80;;;17.99;65.73;96385.25;4232920;33;19966;-83
2022/09/08 10:06:50;;;;;;;;;;;18.80;71.90;;;17.99;66.26;96382.47;4233379;33;20299;-83
2022/09/08 10:10:09;;;;;;;;;;;18.70;71.90;;;17.98;66.53;96375.31;4233147;33;20156;-83
2022/09/08 10:13:42;;;;;;;;;;;18.70;71.90;;;17.96;66.22;96378.38;4184727;33;20127;-83
2022/09/08 10:16:53;;;;;;;;;;;18.70;72.00;;;17.94;66.23;96370.34;4233224;33;20099;-83
2022/09/08 10:20:27;;;;;;;;;;;18.70;72.00;;;17.94;66.29;96377.84;4233314;33;20091;-83
2022/09/08 10:23:09;;;;;;;;;;;18.70;72.00;;;17.94;66.50;96383.41;4153302;34;20208;-83
2022/09/08 10:53:43;;;;;;;;;;;18.60;72.40;;;17.82;67.00;96369.28;4215556;28;20075;-83
2022/09/08 10:56:15;;;;;;;;;;;18.60;72.40;;;17.81;66.66;96365.72;4188475;34;19910;-83
2022/09/08 10:59:15;;;;;;;;;;;18.60;72.50;;;17.81;66.81;96362.13;4187981;34;20022;-83
2022/09/08 11:02:10;;;;;;;;;;;18.60;72.50;;;17.81;66.86;96362.13;4180065;34;19910;-84
2022/09/08 11:05:36;;;;;;;;;;;18.60;72.60;;;17.81;66.92;96348.25;4160769;34;19903;-83
2022/09/08 11:09:00;;;;;;;;;;;18.50;72.60;;;17.79;66.92;96343.84;4137577;34;20127;-83
2022/09/08 11:12:24;;;;;;;;;;;18.60;72.60;;;17.81;67.03;96351.03;4159693;34;20103;-83
2022/09/08 11:16:02;;;;;;;;;;;18.50;72.80;;;17.78;67.41;96345.00;4170961;34;20013;-83
2022/09/08 11:18:37;;;;;;;;;;;18.60;72.80;;;17.78;66.92;96339.44;4009651;35;20005;-83
2022/09/08 11:21:09;;;;;;;;;;;18.50;72.80;;;17.78;67.04;96327.56;4053089;34;20083;-84
2022/09/08 11:23:52;;;;;;;;;;;18.50;72.80;;;17.77;67.02;96329.50;4097429;34;20133;-84
2022/09/08 11:26:40;;;;;;;;;;;18.50;72.70;;;17.75;67.13;96331.75;4160615;34;20096;-83
2022/09/08 11:29:10;;;;;;;;;;;18.50;72.70;;;17.76;66.92;96319.56;4159978;34;19911;-83
2022/09/08 11:31:49;;;;;;;;;;;18.50;72.80;;;17.75;67.10;96326.22;4160350;34;19903;-84
2022/09/08 11:34:48;;;;;;;;;;;18.50;72.80;;;17.74;67.06;96326.56;4137747;34;19911;-83
2022/09/08 11:38:01;;;;;;;;;;;18.50;72.90;;;17.74;66.99;96330.16;4160077;34;19904;-83
2022/09/08 11:41:06;;;;;;;;;;;18.50;72.90;;;17.73;67.03;96317.44;4147525;34;20071;-83
2022/09/08 11:43:52;;;;;;;;;;;18.50;72.90;;;17.74;67.20;96318.25;4183453;34;20257;-83
2022/09/08 11:46:55;;;;;;;;;;;18.50;72.90;;;17.73;67.13;96320.22;4183324;34;19919;-83
2022/09/08 11:49:45;;;;;;;;;;;18.50;73.00;;;17.73;67.35;96311.91;4151347;34;19923;-84
2022/09/08 11:52:32;;;;;;;;;;;18.50;73.10;;;17.72;67.26;96310.25;4151070;34;20139;-83
2022/09/08 11:55:30;;;;;;;;;;;18.50;72.90;;;17.72;67.18;96301.13;4151100;34;20383;-84
2022/09/08 11:58:12;;;;;;;;;;;18.50;72.90;;;17.72;67.13;96304.72;4143081;34;19911;-83
2022/09/08 12:01:02;;;;;;;;;;;18.50;73.10;;;17.71;67.18;96299.47;4174115;34;19904;-83
2022/09/08 12:03:51;;;;;;;;;;;18.50;73.00;;;17.71;67.21;96293.94;4128492;34;20158;-83
2022/09/08 12:07:09;;;;;;;;;;;18.50;73.00;;;17.70;67.44;96295.91;4151103;34;19904;-83
2022/09/08 12:10:06;;;;;;;;;;;18.50;73.00;;;17.72;67.32;96295.59;4166644;34;20073;-83
2022/09/08 12:12:59;;;;;;;;;;;18.40;73.10;;;17.72;67.56;96293.66;4128561;34;20035;-83
2022/09/08 12:15:58;;;;;;;;;;;18.50;73.30;;;17.70;67.31;96298.69;4151985;34;19936;-83
2022/09/08 12:18:37;;;;;;;;;;;18.40;73.10;;;17.70;67.40;96293.13;4150412;34;20123;-83
2022/09/08 12:21:40;;;;;;;;;;;18.50;73.20;;;17.72;67.28;96304.72;4151875;34;19946;-83
2022/09/08 12:24:19;;;;;;;;;;;18.50;73.20;;;17.72;67.26;96295.59;4173778;34;19903;-83
2022/09/08 12:26:54;;;;;;;;;;;18.40;73.10;;;17.71;67.20;96294.78;4150669;34;20193;-84
2022/09/08 12:30:05;;;;;;;;;;;18.50;73.10;;;17.71;67.19;96293.94;4150623;34;19911;-84
2022/09/08 12:33:05;;;;;;;;;;;18.40;72.90;;;17.72;67.18;96295.59;4142532;34;20086;-83
2022/09/08 12:35:35;;;;;;;;;;;18.50;73.00;;;17.70;67.18;96293.13;4127835;34;19903;-83
2022/09/08 12:38:33;;;;;;;;;;;18.50;72.90;;;17.70;67.04;96289.53;4178661;34;19903;-84
2022/09/08 12:41:24;;;;;;;;;;;18.50;72.90;;;17.70;67.16;96293.13;4178067;33;20218;-84
2022/09/08 12:43:56;;;;;;;;;;;18.50;72.90;;;17.70;67.12;96289.53;4162111;34;19912;-83
2022/09/08 12:46:39;;;;;;;;;;;18.50;72.90;;;17.70;67.08;96293.13;4155223;34;19951;-83
2022/09/08 12:49:58;;;;;;;;;;;18.50;72.90;;;17.69;67.49;96291.50;4177561;34;19903;-83
2022/09/08 12:52:38;;;;;;;;;;;18.50;72.90;;;17.69;67.08;96297.03;4175901;33;19904;-83
2022/09/08 12:55:16;;;;;;;;;;;18.50;72.90;;;17.70;67.28;96301.44;4177911;34;20072;-83
2022/09/08 12:57:54;;;;;;;;;;;18.50;72.80;;;17.70;66.90;96295.91;4178525;34;19956;-83
2022/09/08 13:00:27;;;;;;;;;;;18.40;72.70;;;17.69;67.25;96302.56;4178055;34;19904;-83
2022/09/08 13:03:26;;;;;;;;;;;18.50;72.80;;;17.70;66.94;96303.38;4177882;33;20032;-83
2022/09/08 13:06:32;;;;;;;;;;;18.50;72.80;;;17.70;66.98;96297.84;4201014;33;20078;-83
2022/09/08 13:09:01;;;;;;;;;;;18.40;72.60;;;17.69;67.39;96297.03;4174461;34;19903;-83
2022/09/08 13:12:01;;;;;;;;;;;18.50;72.90;;;17.69;67.06;96297.03;4201282;33;20035;-83
2022/09/08 13:14:42;;;;;;;;;;;18.40;72.70;;;17.69;67.06;96299.81;4162385;34;19915;-83
2022/09/08 13:17:14;;;;;;;;;;;18.50;72.80;;;17.71;66.81;96302.25;4200391;33;19918;-83
2022/09/08 13:20:02;;;;;;;;;;;18.50;72.90;;;17.69;67.04;96299.81;4177741;34;19903;-83
2022/09/08 13:22:37;;;;;;;;;;;18.50;72.90;;;17.69;67.22;96302.56;4177737;33;19903;-83